Terminal Aerodrome Forecast
Issued by NWS

Home | Current Version | Previous Version | Text Only | Print | Product List | Glossary On
Versions: 1 2 3 4 5 6 7 8 9 10 11 12 13 14 15
000
FTUS45 KABQ 182300
TAFTCC
TAF
KTCC 182330Z 1900/1924 22018G28KT P6SM BKN200
     FM190400 21015KT P6SM BKN200
     FM191900 22015G25KT P6SM BKN120=

USA.gov is the U.S. government's official web portal to all federal, state and local government web resources and services.